sensor_id;sensor_type;location;lat;lon;timestamp;pressure;altitude;pressure_sealevel;temperature;humidity
10824;BME280;39116;59.332;18.034;2023-02-15T00:00:27;102397.78;;;2.45;100.00
10824;BME280;39116;59.332;18.034;2023-02-15T00:02:49;102401.25;;;2.45;100.00
10824;BME280;39116;59.332;18.034;2023-02-15T00:05:11;102375.41;;;2.31;100.00
10824;BME280;39116;59.332;18.034;2023-02-15T00:07:33;102403.53;;;2.41;100.00
10824;BME280;39116;59.332;18.034;2023-02-15T00:09:55;102392.16;;;2.37;100.00
10824;BME280;39116;59.332;18.034;2023-02-15T00:12:17;102373.06;;;2.34;100.00
10824;BME280;39116;59.332;18.034;2023-02-15T00:14:39;102373.09;;;2.22;100.00
10824;BME280;39116;59.332;18.034;2023-02-15T00:17:04;102377.50;;;2.36;100.00
10824;BME280;39116;59.332;18.034;2023-02-15T00:19:26;102274.09;;;1.88;100.00
10824;BME280;39116;59.332;18.034;2023-02-15T00:21:48;102365.34;;;2.34;100.00
10824;BME280;39116;59.332;18.034;2023-02-15T00:24:12;102371.50;;;2.49;100.00
10824;BME280;39116;59.332;18.034;2023-02-15T00:26:35;102371.31;;;2.46;100.00
10824;BME280;39116;59.332;18.034;2023-02-15T00:28:58;102367.72;;;2.44;100.00
10824;BME280;39116;59.332;18.034;2023-02-15T00:31:20;102369.84;;;2.50;100.00
10824;BME280;39116;59.332;18.034;2023-02-15T00:33:43;102354.59;;;2.39;100.00
10824;BME280;39116;59.332;18.034;2023-02-15T00:36:08;102353.59;;;2.51;100.00
10824;BME280;39116;59.332;18.034;2023-02-15T00:38:31;102334.13;;;2.41;100.00
10824;BME280;39116;59.332;18.034;2023-02-15T00:40:53;102341.63;;;2.38;100.00
10824;BME280;39116;59.332;18.034;2023-02-15T00:43:15;102361.81;;;2.58;100.00
10824;BME280;39116;59.332;18.034;2023-02-15T00:45:37;102352.56;;;2.60;100.00
10824;BME280;39116;59.332;18.034;2023-02-15T00:47:59;102362.03;;;2.61;100.00
10824;BME280;39116;59.332;18.034;2023-02-15T00:50:22;102359.34;;;2.60;100.00
10824;BME280;39116;59.332;18.034;2023-02-15T00:52:44;102342.22;;;2.47;100.00
10824;BME280;39116;59.332;18.034;2023-02-15T00:55:07;102323.25;;;2.32;100.00
10824;BME280;39116;59.332;18.034;2023-02-15T00:57:29;102366.78;;;2.55;100.00
10824;BME280;39116;59.332;18.034;2023-02-15T00:59:51;102346.00;;;2.39;100.00
10824;BME280;39116;59.332;18.034;2023-02-15T01:02:13;102361.66;;;2.55;100.00
10824;BME280;39116;59.332;18.034;2023-02-15T01:04:35;102365.16;;;2.44;100.00
10824;BME280;39116;59.332;18.034;2023-02-15T01:06:58;102366.94;;;2.45;100.00
10824;BME280;39116;59.332;18.034;2023-02-15T01:09:22;102357.44;;;2.44;100.00
10824;BME280;39116;59.332;18.034;2023-02-15T01:11:44;102345.88;;;2.37;100.00
10824;BME280;39116;59.332;18.034;2023-02-15T01:14:06;102357.88;;;2.50;100.00
10824;BME280;39116;59.332;18.034;2023-02-15T01:16:28;102340.31;;;2.31;100.00
10824;BME280;39116;59.332;18.034;2023-02-15T01:18:50;102280.63;;;1.97;100.00
10824;BME280;39116;59.332;18.034;2023-02-15T01:21:14;102334.88;;;2.26;100.00
10824;BME280;39116;59.332;18.034;2023-02-15T01:23:38;102345.16;;;2.26;100.00
10824;BME280;39116;59.332;18.034;2023-02-15T01:26:01;102350.59;;;2.31;100.00
10824;BME280;39116;59.332;18.034;2023-02-15T01:28:23;102336.22;;;2.46;100.00
10824;BME280;39116;59.332;18.034;2023-02-15T01:30:45;102333.13;;;2.39;100.00
10824;BME280;39116;59.332;18.034;2023-02-15T01:33:07;102329.16;;;2.31;100.00
10824;BME280;39116;59.332;18.034;2023-02-15T01:35:37;102311.75;;;2.26;100.00
10824;BME280;39116;59.332;18.034;2023-02-15T01:37:59;102325.81;;;2.32;100.00
10824;BME280;39116;59.332;18.034;2023-02-15T01:40:24;102319.69;;;2.43;100.00
10824;BME280;39116;59.332;18.034;2023-02-15T01:42:49;102323.13;;;2.30;100.00
10824;BME280;39116;59.332;18.034;2023-02-15T01:45:18;102314.34;;;2.40;100.00
10824;BME280;39116;59.332;18.034;2023-02-15T01:47:43;102274.97;;;2.14;100.00
10824;BME280;39116;59.332;18.034;2023-02-15T01:50:10;102284.25;;;2.25;100.00
10824;BME280;39116;59.332;18.034;2023-02-15T01:52:35;102302.97;;;2.36;100.00
10824;BME280;39116;59.332;18.034;2023-02-15T01:54:58;102292.69;;;2.36;100.00
10824;BME280;39116;59.332;18.034;2023-02-15T01:57:23;102279.56;;;2.32;100.00
10824;BME280;39116;59.332;18.034;2023-02-15T01:59:51;102293.00;;;2.41;100.00
10824;BME280;39116;59.332;18.034;2023-02-15T02:02:17;102294.47;;;2.37;100.00
10824;BME280;39116;59.332;18.034;2023-02-15T02:04:45;102289.72;;;2.43;100.00
10824;BME280;39116;59.332;18.034;2023-02-15T02:07:09;102288.25;;;2.47;100.00
10824;BME280;39116;59.332;18.034;2023-02-15T02:09:34;102256.81;;;2.38;100.00
10824;BME280;39116;59.332;18.034;2023-02-15T02:11:57;102284.81;;;2.46;100.00
10824;BME280;39116;59.332;18.034;2023-02-15T02:14:22;102259.00;;;2.32;100.00
10824;BME280;39116;59.332;18.034;2023-02-15T02:16:52;102237.25;;;2.26;100.00
10824;BME280;39116;59.332;18.034;2023-02-15T02:19:48;102282.81;;;2.42;100.00
10824;BME280;39116;59.332;18.034;2023-02-15T02:22:35;102284.69;;;2.32;100.00
10824;BME280;39116;59.332;18.034;2023-02-15T02:28:03;102276.00;;;2.56;100.00
10824;BME280;39116;59.332;18.034;2023-02-15T02:33:40;102241.28;;;2.36;100.00
10824;BME280;39116;59.332;18.034;2023-02-15T02:36:11;102259.97;;;2.47;100.00
10824;BME280;39116;59.332;18.034;2023-02-15T02:38:45;102262.16;;;2.54;100.00
10824;BME280;39116;59.332;18.034;2023-02-15T02:41:16;102253.84;;;2.32;100.00
10824;BME280;39116;59.332;18.034;2023-02-15T02:43:44;102258.06;;;2.31;100.00
10824;BME280;39116;59.332;18.034;2023-02-15T02:46:13;102257.31;;;2.32;100.00
10824;BME280;39116;59.332;18.034;2023-02-15T02:48:39;102235.97;;;2.46;100.00
10824;BME280;39116;59.332;18.034;2023-02-15T02:51:02;102241.28;;;2.36;100.00
10824;BME280;39116;59.332;18.034;2023-02-15T02:53:24;102248.91;;;2.48;100.00
10824;BME280;39116;59.332;18.034;2023-02-15T02:55:50;102246.44;;;2.63;100.00
10824;BME280;39116;59.332;18.034;2023-02-15T02:58:17;102241.59;;;2.54;100.00
10824;BME280;39116;59.332;18.034;2023-02-15T03:00:46;102245.81;;;2.40;100.00
10824;BME280;39116;59.332;18.034;2023-02-15T03:03:12;102238.53;;;2.46;100.00
10824;BME280;39116;59.332;18.034;2023-02-15T03:05:40;102243.97;;;2.38;100.00
10824;BME280;39116;59.332;18.034;2023-02-15T03:08:04;102232.41;;;2.58;100.00
10824;BME280;39116;59.332;18.034;2023-02-15T03:10:30;102236.06;;;2.61;100.00
10824;BME280;39116;59.332;18.034;2023-02-15T03:12:52;102239.19;;;2.44;100.00
10824;BME280;39116;59.332;18.034;2023-02-15T03:15:19;102231.09;;;2.51;100.00
10824;BME280;39116;59.332;18.034;2023-02-15T03:17:43;102147.56;;;2.04;100.00
10824;BME280;39116;59.332;18.034;2023-02-15T03:20:11;102210.94;;;2.31;100.00
10824;BME280;39116;59.332;18.034;2023-02-15T03:22:37;102238.03;;;2.52;100.00
10824;BME280;39116;59.332;18.034;2023-02-15T03:25:05;102229.13;;;2.47;100.00
10824;BME280;39116;59.332;18.034;2023-02-15T03:27:34;102221.91;;;2.41;100.00
10824;BME280;39116;59.332;18.034;2023-02-15T03:30:00;102196.19;;;2.15;100.00
10824;BME280;39116;59.332;18.034;2023-02-15T03:32:25;102218.47;;;2.41;100.00
10824;BME280;39116;59.332;18.034;2023-02-15T03:34:48;102229.13;;;2.47;100.00
10824;BME280;39116;59.332;18.034;2023-02-15T03:37:13;102228.34;;;2.48;100.00
10824;BME280;39116;59.332;18.034;2023-02-15T03:39:45;102220.44;;;2.45;100.00
10824;BME280;39116;59.332;18.034;2023-02-15T03:42:11;102215.09;;;2.42;100.00
10824;BME280;39116;59.332;18.034;2023-02-15T03:44:43;102219.84;;;2.36;100.00
10824;BME280;39116;59.332;18.034;2023-02-15T03:47:11;102187.88;;;2.19;100.00
10824;BME280;39116;59.332;18.034;2023-02-15T03:49:39;102215.09;;;2.42;100.00
10824;BME280;39116;59.332;18.034;2023-02-15T03:52:05;102196.50;;;2.33;100.00
10824;BME280;39116;59.332;18.034;2023-02-15T03:54:30;102206.00;;;2.47;100.00
10824;BME280;39116;59.332;18.034;2023-02-15T03:57:10;102176.75;;;2.32;100.00
10824;BME280;39116;59.332;18.034;2023-02-15T03:59:50;102208.59;;;2.34;100.00
10824;BME280;39116;59.332;18.034;2023-02-15T04:02:34;102198.06;;;2.44;100.00
10824;BME280;39116;59.332;18.034;2023-02-15T04:04:57;102200.09;;;2.48;100.00
10824;BME280;39116;59.332;18.034;2023-02-15T04:07:19;102194.53;;;2.55;100.00
10824;BME280;39116;59.332;18.034;2023-02-15T04:09:41;102180.97;;;2.58;100.00
10824;BME280;39116;59.332;18.034;2023-02-15T04:12:23;102180.41;;;2.48;100.00
10824;BME280;39116;59.332;18.034;2023-02-15T04:14:45;102143.53;;;2.21;100.00
10824;BME280;39116;59.332;18.034;2023-02-15T04:17:24;102185.44;;;2.34;100.00
10824;BME280;39116;59.332;18.034;2023-02-15T04:19:46;102174.66;;;2.53;100.00
10824;BME280;39116;59.332;18.034;2023-02-15T04:22:26;102167.66;;;2.50;100.00
10824;BME280;39116;59.332;18.034;2023-02-15T04:25:05;102172.00;;;2.38;100.00
10824;BME280;39116;59.332;18.034;2023-02-15T04:27:35;102173.09;;;2.41;100.00
10824;BME280;39116;59.332;18.034;2023-02-15T04:29:57;102158.16;;;2.36;100.00
10824;BME280;39116;59.332;18.034;2023-02-15T04:32:19;102154.22;;;2.41;100.00
10824;BME280;39116;59.332;18.034;2023-02-15T04:34:41;102173.38;;;2.33;100.00
10824;BME280;39116;59.332;18.034;2023-02-15T04:37:03;102135.94;;;2.23;100.00
10824;BME280;39116;59.332;18.034;2023-02-15T04:39:24;102172.00;;;2.38;100.00
10824;BME280;39116;59.332;18.034;2023-02-15T04:41:47;102160.94;;;2.39;100.00
10824;BME280;39116;59.332;18.034;2023-02-15T04:44:10;102162.09;;;2.44;100.00
10824;BME280;39116;59.332;18.034;2023-02-15T04:46:32;102166.16;;;2.40;100.00
10824;BME280;39116;59.332;18.034;2023-02-15T04:48:55;102148.75;;;2.36;100.00
10824;BME280;39116;59.332;18.034;2023-02-15T04:51:17;102147.31;;;2.26;100.00
10824;BME280;39116;59.332;18.034;2023-02-15T04:53:39;102117.03;;;2.36;100.00
10824;BME280;39116;59.332;18.034;2023-02-15T04:56:01;102153.00;;;2.49;100.00
10824;BME280;39116;59.332;18.034;2023-02-15T04:58:23;102122.88;;;2.33;100.00
10824;BME280;39116;59.332;18.034;2023-02-15T05:00:46;102137.69;;;2.51;100.00
10824;BME280;39116;59.332;18.034;2023-02-15T05:03:08;102150.84;;;2.55;100.00
10824;BME280;39116;59.332;18.034;2023-02-15T05:05:30;102141.53;;;2.57;100.00
10824;BME280;39116;59.332;18.034;2023-02-15T05:07:52;102146.69;;;2.44;100.00
10824;BME280;39116;59.332;18.034;2023-02-15T05:10:14;102137.72;;;2.37;100.00
10824;BME280;39116;59.332;18.034;2023-02-15T05:12:36;102129.69;;;2.46;100.00
10824;BME280;39116;59.332;18.034;2023-02-15T05:14:58;102125.75;;;2.38;100.00
10824;BME280;39116;59.332;18.034;2023-02-15T05:17:22;102144.31;;;2.60;100.00
10824;BME280;39116;59.332;18.034;2023-02-15T05:19:44;102130.78;;;2.50;100.00
10824;BME280;39116;59.332;18.034;2023-02-15T05:22:06;102145.69;;;2.55;100.00
10824;BME280;39116;59.332;18.034;2023-02-15T05:24:28;102140.94;;;2.61;100.00
10824;BME280;39116;59.332;18.034;2023-02-15T05:27:10;102137.38;;;2.59;100.00
10824;BME280;39116;59.332;18.034;2023-02-15T05:29:50;102136.66;;;2.62;100.00
10824;BME280;39116;59.332;18.034;2023-02-15T05:32:12;102113.97;;;2.41;100.00
10824;BME280;39116;59.332;18.034;2023-02-15T05:34:36;102113.88;;;2.53;100.00
10824;BME280;39116;59.332;18.034;2023-02-15T05:36:58;102090.13;;;2.44;100.00
10824;BME280;39116;59.332;18.034;2023-02-15T05:39:20;102122.84;;;2.60;100.00
10824;BME280;39116;59.332;18.034;2023-02-15T05:41:42;102120.66;;;2.53;100.00
10824;BME280;39116;59.332;18.034;2023-02-15T05:44:04;102125.13;;;2.55;100.00
10824;BME280;39116;59.332;18.034;2023-02-15T05:46:26;102131.88;;;2.53;100.00
10824;BME280;39116;59.332;18.034;2023-02-15T05:48:48;102125.69;;;2.64;100.00
10824;BME280;39116;59.332;18.034;2023-02-15T05:51:12;102080.88;;;2.33;100.00
10824;BME280;39116;59.332;18.034;2023-02-15T05:53:37;102015.41;;;1.86;100.00
10824;BME280;39116;59.332;18.034;2023-02-15T05:56:00;102078.28;;;2.46;100.00
10824;BME280;39116;59.332;18.034;2023-02-15T05:58:23;102101.19;;;2.56;100.00
10824;BME280;39116;59.332;18.034;2023-02-15T06:00:45;102117.31;;;2.54;100.00
10824;BME280;39116;59.332;18.034;2023-02-15T06:03:07;102113.06;;;2.54;100.00
10824;BME280;39116;59.332;18.034;2023-02-15T06:05:29;102101.03;;;2.53;100.00
10824;BME280;39116;59.332;18.034;2023-02-15T06:07:52;102109.56;;;2.67;100.00
10824;BME280;39116;59.332;18.034;2023-02-15T06:10:15;102106.22;;;2.68;100.00
10824;BME280;39116;59.332;18.034;2023-02-15T06:12:37;102103.25;;;2.62;100.00
10824;BME280;39116;59.332;18.034;2023-02-15T06:14:58;101980.94;;;1.96;100.00
10824;BME280;39116;59.332;18.034;2023-02-15T06:17:20;102110.84;;;2.74;100.00
10824;BME280;39116;59.332;18.034;2023-02-15T06:19:43;102101.13;;;2.83;100.00
10824;BME280;39116;59.332;18.034;2023-02-15T06:22:05;102098.13;;;2.90;100.00
10824;BME280;39116;59.332;18.034;2023-02-15T06:24:29;102095.78;;;2.80;100.00
10824;BME280;39116;59.332;18.034;2023-02-15T06:26:51;102084.09;;;2.85;100.00
10824;BME280;39116;59.332;18.034;2023-02-15T06:29:13;102097.88;;;2.85;100.00
10824;BME280;39116;59.332;18.034;2023-02-15T06:31:35;102091.91;;;2.86;100.00
10824;BME280;39116;59.332;18.034;2023-02-15T06:33:57;102093.59;;;2.86;100.00
10824;BME280;39116;59.332;18.034;2023-02-15T06:36:21;102084.28;;;2.88;100.00
10824;BME280;39116;59.332;18.034;2023-02-15T06:38:43;102093.50;;;2.84;100.00
10824;BME280;39116;59.332;18.034;2023-02-15T06:41:06;101998.28;;;2.26;100.00
10824;BME280;39116;59.332;18.034;2023-02-15T06:43:29;102095.56;;;2.90;100.00
10824;BME280;39116;59.332;18.034;2023-02-15T06:45:50;102089.75;;;2.79;100.00
10824;BME280;39116;59.332;18.034;2023-02-15T06:48:13;102090.50;;;2.92;100.00
10824;BME280;39116;59.332;18.034;2023-02-15T06:50:35;102062.09;;;2.75;100.00
10824;BME280;39116;59.332;18.034;2023-02-15T06:52:57;102095.28;;;2.85;100.00
10824;BME280;39116;59.332;18.034;2023-02-15T06:55:19;102091.03;;;2.86;100.00
10824;BME280;39116;59.332;18.034;2023-02-15T06:57:43;102096.91;;;2.98;100.00
10824;BME280;39116;59.332;18.034;2023-02-15T07:00:06;102051.91;;;2.63;100.00
10824;BME280;39116;59.332;18.034;2023-02-15T07:02:28;102091.22;;;2.89;100.00
10824;BME280;39116;59.332;18.034;2023-02-15T07:04:50;102096.94;;;2.85;100.00
10824;BME280;39116;59.332;18.034;2023-02-15T07:07:12;102092.53;;;2.82;100.00
10824;BME280;39116;59.332;18.034;2023-02-15T07:09:34;102100.91;;;2.80;100.00
10824;BME280;39116;59.332;18.034;2023-02-15T07:11:56;102064.00;;;2.64;100.00
10824;BME280;39116;59.332;18.034;2023-02-15T07:14:37;102091.47;;;2.65;100.00
10824;BME280;39116;59.332;18.034;2023-02-15T07:17:01;102084.50;;;2.78;100.00
10824;BME280;39116;59.332;18.034;2023-02-15T07:19:23;102106.47;;;2.86;100.00
10824;BME280;39116;59.332;18.034;2023-02-15T07:21:45;102081.34;;;2.82;100.00
10824;BME280;39116;59.332;18.034;2023-02-15T07:24:07;102094.03;;;2.79;100.00
10824;BME280;39116;59.332;18.034;2023-02-15T07:26:30;102086.72;;;2.72;100.00
10824;BME280;39116;59.332;18.034;2023-02-15T07:28:52;102091.53;;;2.80;100.00
10824;BME280;39116;59.332;18.034;2023-02-15T07:31:16;102097.38;;;2.78;100.00
10824;BME280;39116;59.332;18.034;2023-02-15T07:33:38;102082.19;;;2.67;100.00
10824;BME280;39116;59.332;18.034;2023-02-15T07:36:01;102083.75;;;2.65;100.00
10824;BME280;39116;59.332;18.034;2023-02-15T07:38:25;102098.19;;;2.63;100.00
10824;BME280;39116;59.332;18.034;2023-02-15T07:40:48;102085.19;;;2.60;100.00
10824;BME280;39116;59.332;18.034;2023-02-15T07:43:10;102086.53;;;2.68;100.00
10824;BME280;39116;59.332;18.034;2023-02-15T07:45:32;102078.50;;;2.77;100.00
10824;BME280;39116;59.332;18.034;2023-02-15T07:47:55;102091.13;;;2.88;100.00
10824;BME280;39116;59.332;18.034;2023-02-15T07:50:17;102085.75;;;2.70;100.00
10824;BME280;39116;59.332;18.034;2023-02-15T07:52:39;102078.91;;;2.70;100.00
10824;BME280;39116;59.332;18.034;2023-02-15T07:55:01;101976.97;;;2.01;100.00
10824;BME280;39116;59.332;18.034;2023-02-15T07:57:24;102083.19;;;2.70;100.00
10824;BME280;39116;59.332;18.034;2023-02-15T07:59:46;102082.19;;;2.67;100.00
10824;BME280;39116;59.332;18.034;2023-02-15T08:02:09;101970.78;;;2.25;100.00
10824;BME280;39116;59.332;18.034;2023-02-15T08:04:33;102060.63;;;2.65;100.00
10824;BME280;39116;59.332;18.034;2023-02-15T08:06:55;101961.53;;;2.14;100.00
10824;BME280;39116;59.332;18.034;2023-02-15T08:09:17;102071.13;;;2.83;100.00
10824;BME280;39116;59.332;18.034;2023-02-15T08:11:39;102072.31;;;2.60;100.00
10824;BME280;39116;59.332;18.034;2023-02-15T08:14:04;102010.72;;;2.34;100.00
10824;BME280;39116;59.332;18.034;2023-02-15T08:16:29;102065.06;;;2.68;100.00
10824;BME280;39116;59.332;18.034;2023-02-15T08:18:52;102069.34;;;2.67;100.00
10824;BME280;39116;59.332;18.034;2023-02-15T08:21:15;102073.25;;;2.76;100.00
10824;BME280;39116;59.332;18.034;2023-02-15T08:23:37;102061.66;;;2.82;100.00
10824;BME280;39116;59.332;18.034;2023-02-15T08:25:59;102055.81;;;2.85;100.00
10824;BME280;39116;59.332;18.034;2023-02-15T08:28:21;102051.81;;;2.90;100.00
10824;BME280;39116;59.332;18.034;2023-02-15T08:30:43;102044.53;;;2.83;100.00
10824;BME280;39116;59.332;18.034;2023-02-15T08:33:05;102029.84;;;2.67;100.00
10824;BME280;39116;59.332;18.034;2023-02-15T08:35:27;102046.88;;;2.93;100.00
10824;BME280;39116;59.332;18.034;2023-02-15T08:37:51;102045.41;;;2.83;100.00
10824;BME280;39116;59.332;18.034;2023-02-15T08:40:13;102035.41;;;2.88;100.00
10824;BME280;39116;59.332;18.034;2023-02-15T08:42:35;102033.63;;;2.87;100.00
10824;BME280;39116;59.332;18.034;2023-02-15T08:44:57;102026.66;;;2.99;100.00
10824;BME280;39116;59.332;18.034;2023-02-15T08:47:19;102026.41;;;2.66;100.00
10824;BME280;39116;59.332;18.034;2023-02-15T08:49:41;102033.03;;;2.91;100.00
10824;BME280;39116;59.332;18.034;2023-02-15T08:52:03;102031.44;;;2.93;100.00
10824;BME280;39116;59.332;18.034;2023-02-15T08:54:26;102030.56;;;2.93;100.00
10824;BME280;39116;59.332;18.034;2023-02-15T08:56:49;102031.34;;;2.92;100.00
10824;BME280;39116;59.332;18.034;2023-02-15T08:59:14;102023.28;;;2.85;100.00
10824;BME280;39116;59.332;18.034;2023-02-15T09:01:37;102021.38;;;2.83;100.00
10824;BME280;39116;59.332;18.034;2023-02-15T09:04:00;102026.88;;;2.74;100.00
10824;BME280;39116;59.332;18.034;2023-02-15T09:06:23;102016.91;;;2.65;100.00
10824;BME280;39116;59.332;18.034;2023-02-15T09:08:46;102035.78;;;2.94;100.00
10824;BME280;39116;59.332;18.034;2023-02-15T09:11:11;102021.47;;;2.70;100.00
10824;BME280;39116;59.332;18.034;2023-02-15T09:13:33;102025.38;;;2.78;100.00
10824;BME280;39116;59.332;18.034;2023-02-15T09:15:59;102025.31;;;2.91;100.00
10824;BME280;39116;59.332;18.034;2023-02-15T09:18:21;102002.94;;;2.75;100.00
10824;BME280;39116;59.332;18.034;2023-02-15T09:20:43;102017.94;;;2.82;100.00
10824;BME280;39116;59.332;18.034;2023-02-15T09:23:06;102017.00;;;2.67;100.00
10824;BME280;39116;59.332;18.034;2023-02-15T09:25:27;102013.56;;;2.81;100.00
10824;BME280;39116;59.332;18.034;2023-02-15T09:27:51;102014.75;;;2.86;100.00
10824;BME280;39116;59.332;18.034;2023-02-15T09:30:13;102013.78;;;2.99;100.00
10824;BME280;39116;59.332;18.034;2023-02-15T09:32:36;102020.81;;;3.02;100.00
10824;BME280;39116;59.332;18.034;2023-02-15T09:34:58;102022.56;;;2.88;100.00
10824;BME280;39116;59.332;18.034;2023-02-15T09:37:20;102012.28;;;2.88;100.00
10824;BME280;39116;59.332;18.034;2023-02-15T09:39:43;101995.56;;;2.66;100.00
10824;BME280;39116;59.332;18.034;2023-02-15T09:42:20;102013.63;;;2.96;100.00
10824;BME280;39116;59.332;18.034;2023-02-15T09:45:12;102009.91;;;2.91;100.00
10824;BME280;39116;59.332;18.034;2023-02-15T09:50:30;102000.38;;;2.90;100.00
10824;BME280;39116;59.332;18.034;2023-02-15T09:53:09;102006.69;;;2.95;100.00
10824;BME280;39116;59.332;18.034;2023-02-15T09:55:43;101995.47;;;2.80;100.00
10824;BME280;39116;59.332;18.034;2023-02-15T09:58:12;101995.25;;;2.90;100.00
10824;BME280;39116;59.332;18.034;2023-02-15T10:00:46;101988.38;;;2.76;100.00
10824;BME280;39116;59.332;18.034;2023-02-15T10:03:23;101988.84;;;2.83;100.00
10824;BME280;39116;59.332;18.034;2023-02-15T10:05:58;101963.22;;;2.85;100.00
10824;BME280;39116;59.332;18.034;2023-02-15T10:08:52;101847.84;;;2.32;100.00
10824;BME280;39116;59.332;18.034;2023-02-15T10:11:17;101985.47;;;2.84;100.00
10824;BME280;39116;59.332;18.034;2023-02-15T10:14:15;101966.16;;;2.91;100.00
10824;BME280;39116;59.332;18.034;2023-02-15T10:16:51;101962.44;;;2.86;100.00
10824;BME280;39116;59.332;18.034;2023-02-15T10:19:22;101939.38;;;3.02;100.00
10824;BME280;39116;59.332;18.034;2023-02-15T10:21:56;101962.53;;;3.02;100.00
10824;BME280;39116;59.332;18.034;2023-02-15T10:27:13;101948.31;;;2.94;100.00
10824;BME280;39116;59.332;18.034;2023-02-15T10:29:37;101952.34;;;2.89;100.00
10824;BME280;39116;59.332;18.034;2023-02-15T10:32:07;101950.88;;;2.94;100.00
10824;BME280;39116;59.332;18.034;2023-02-15T10:34:36;101924.81;;;2.73;100.00
10824;BME280;39116;59.332;18.034;2023-02-15T10:37:10;101941.13;;;2.89;100.00
10824;BME280;39116;59.332;18.034;2023-02-15T10:39:46;101935.72;;;3.14;100.00
10824;BME280;39116;59.332;18.034;2023-02-15T10:42:15;101933.50;;;3.05;100.00
10824;BME280;39116;59.332;18.034;2023-02-15T10:44:51;101899.00;;;3.01;100.00
10824;BME280;39116;59.332;18.034;2023-02-15T10:47:32;101939.38;;;3.32;100.00
10824;BME280;39116;59.332;18.034;2023-02-15T10:50:11;101933.53;;;3.20;100.00
10824;BME280;39116;59.332;18.034;2023-02-15T10:52:46;101923.75;;;3.29;100.00
10824;BME280;39116;59.332;18.034;2023-02-15T10:55:17;101924.81;;;3.33;100.00
10824;BME280;39116;59.332;18.034;2023-02-15T10:57:49;101919.69;;;3.18;100.00
10824;BME280;39116;59.332;18.034;2023-02-15T11:00:19;101913.91;;;3.22;100.00
10824;BME280;39116;59.332;18.034;2023-02-15T11:02:57;101899.16;;;3.19;100.00
10824;BME280;39116;59.332;18.034;2023-02-15T11:05:34;101918.22;;;3.38;100.00
10824;BME280;39116;59.332;18.034;2023-02-15T11:07:59;101918.19;;;3.53;100.00
10824;BME280;39116;59.332;18.034;2023-02-15T11:10:28;101910.47;;;3.21;100.00
10824;BME280;39116;59.332;18.034;2023-02-15T11:12:52;101908.75;;;3.22;100.00
10824;BME280;39116;59.332;18.034;2023-02-15T11:15:20;101906.16;;;3.52;100.00
10824;BME280;39116;59.332;18.034;2023-02-15T11:17:50;101895.88;;;3.22;100.00
10824;BME280;39116;59.332;18.034;2023-02-15T11:20:18;101905.31;;;3.06;100.00
10824;BME280;39116;59.332;18.034;2023-02-15T11:22:47;101901.41;;;3.13;100.00
10824;BME280;39116;59.332;18.034;2023-02-15T11:25:17;101904.41;;;3.36;100.00
10824;BME280;39116;59.332;18.034;2023-02-15T11:27:40;101910.25;;;3.33;100.00
10824;BME280;39116;59.332;18.034;2023-02-15T11:30:04;101904.50;;;3.08;100.00
10824;BME280;39116;59.332;18.034;2023-02-15T11:32:32;101891.66;;;3.08;100.00
10824;BME280;39116;59.332;18.034;2023-02-15T11:35:00;101900.66;;;3.16;100.00
10824;BME280;39116;59.332;18.034;2023-02-15T11:37:29;101896.78;;;3.08;100.00
10824;BME280;39116;59.332;18.034;2023-02-15T11:39:54;101903.63;;;3.07;100.00
10824;BME280;39116;59.332;18.034;2023-02-15T11:42:20;101893.41;;;3.09;100.00
10824;BME280;39116;59.332;18.034;2023-02-15T11:44:47;101881.53;;;3.11;100.00
10824;BME280;39116;59.332;18.034;2023-02-15T11:47:14;101885.16;;;2.99;100.00
10824;BME280;39116;59.332;18.034;2023-02-15T11:49:36;101867.88;;;2.97;100.00
10824;BME280;39116;59.332;18.034;2023-02-15T11:52:02;101878.97;;;2.96;100.00
10824;BME280;39116;59.332;18.034;2023-02-15T11:54:29;101881.38;;;3.08;100.00
10824;BME280;39116;59.332;18.034;2023-02-15T11:56:53;101874.69;;;3.11;100.00
10824;BME280;39116;59.332;18.034;2023-02-15T11:59:21;101878.78;;;3.08;100.00
10824;BME280;39116;59.332;18.034;2023-02-15T12:01:46;101881.28;;;3.06;100.00
10824;BME280;39116;59.332;18.034;2023-02-15T12:04:15;101871.41;;;3.29;100.00
10824;BME280;39116;59.332;18.034;2023-02-15T12:06:44;101870.03;;;3.35;100.00
10824;BME280;39116;59.332;18.034;2023-02-15T12:09:17;101861.16;;;3.30;100.00
10824;BME280;39116;59.332;18.034;2023-02-15T12:11:41;101860.09;;;3.27;100.00
10824;BME280;39116;59.332;18.034;2023-02-15T12:14:04;101858.84;;;3.03;100.00
10824;BME280;39116;59.332;18.034;2023-02-15T12:16:28;101858.13;;;3.06;100.00
10824;BME280;39116;59.332;18.034;2023-02-15T12:18:52;101853.13;;;3.24;100.00
10824;BME280;39116;59.332;18.034;2023-02-15T12:21:23;101866.44;;;3.17;100.00
10824;BME280;39116;59.332;18.034;2023-02-15T12:23:47;101793.97;;;2.63;100.00
10824;BME280;39116;59.332;18.034;2023-02-15T12:26:12;101851.19;;;3.20;100.00
10824;BME280;39116;59.332;18.034;2023-02-15T12:28:36;101844.81;;;2.98;100.00
10824;BME280;39116;59.332;18.034;2023-02-15T12:31:00;101817.59;;;2.87;100.00
10824;BME280;39116;59.332;18.034;2023-02-15T12:33:27;101854.34;;;3.16;100.00
10824;BME280;39116;59.332;18.034;2023-02-15T12:35:57;101827.28;;;2.91;100.00
10824;BME280;39116;59.332;18.034;2023-02-15T12:38:23;101836.88;;;2.79;100.00
10824;BME280;39116;59.332;18.034;2023-02-15T12:40:57;101857.69;;;2.98;100.00
10824;BME280;39116;59.332;18.034;2023-02-15T12:43:26;101825.31;;;2.87;100.00